createdAt,value
2022-08-09T00:01:27.855Z,80.90
2022-08-09T00:04:24.910Z,81.10
2022-08-09T00:07:00.292Z,81.40
2022-08-09T00:09:27.822Z,81.70
2022-08-09T00:12:04.010Z,81.90
2022-08-09T00:14:37.908Z,81.90
2022-08-09T00:17:06.474Z,82.40
2022-08-09T00:19:34.141Z,82.60
2022-08-09T00:22:03.676Z,82.90
2022-08-09T00:24:32.111Z,83.20
2022-08-09T00:27:00.373Z,83.60
2022-08-09T00:30:10.465Z,83.30
2022-08-09T00:32:27.247Z,83.20
2022-08-09T00:34:55.192Z,84.00
2022-08-09T00:37:22.135Z,84.40
2022-08-09T00:40:09.665Z,85.30
2022-08-09T00:44:11.478Z,85.00
2022-08-09T00:45:25.383Z,85.60
2022-08-09T00:47:52.624Z,86.10
2022-08-09T00:50:22.952Z,86.60
2022-08-09T00:52:50.492Z,86.90
2022-08-09T00:55:54.244Z,87.00
2022-08-09T00:58:05.963Z,87.40
2022-08-09T01:00:40.642Z,87.90
2022-08-09T01:03:12.783Z,88.30
2022-08-09T01:05:55.245Z,88.50
2022-08-09T01:08:57.964Z,88.90
2022-08-09T01:11:56.188Z,88.40
2022-08-09T01:14:52.893Z,89.00
2022-08-09T01:17:44.068Z,89.80
2022-08-09T01:20:23.785Z,90.00
2022-08-09T01:23:12.475Z,90.10
2022-08-09T01:26:15.500Z,90.40
2022-08-09T01:28:47.537Z,90.90
2022-08-09T01:32:27.974Z,90.90
2022-08-09T01:34:10.778Z,91.20
2022-08-09T01:36:41.080Z,91.00
2022-08-09T01:39:08.775Z,91.00
2022-08-09T01:41:37.726Z,91.20
2022-08-09T01:44:23.895Z,91.40
2022-08-09T01:46:53.018Z,91.70
2022-08-09T01:49:24.277Z,91.70
2022-08-09T01:51:56.398Z,91.70
2022-08-09T01:54:32.572Z,91.80
2022-08-09T01:57:05.220Z,92.00
2022-08-09T01:59:40.836Z,92.20
2022-08-09T02:02:31.393Z,92.30
2022-08-09T02:05:05.505Z,92.50
2022-08-09T02:08:40.802Z,92.80
2022-08-09T02:10:51.224Z,92.70
2022-08-09T02:13:21.936Z,93.30
2022-08-09T02:15:56.438Z,93.40
2022-08-09T02:18:28.430Z,93.50
2022-08-09T02:21:02.652Z,93.80
2022-08-09T02:24:00.232Z,94.20
2022-08-09T02:26:32.577Z,94.70
2022-08-09T02:29:06.762Z,94.90
2022-08-09T02:31:38.859Z,95.10
2022-08-09T02:34:40.238Z,95.40
2022-08-09T02:37:05.244Z,95.40
2022-08-09T02:39:43.858Z,95.60
2022-08-09T02:42:26.795Z,95.80
2022-08-09T02:44:57.469Z,96.20
2022-08-09T02:47:25.161Z,96.40
2022-08-09T02:50:01.657Z,96.00
2022-08-09T02:52:39.835Z,96.10
2022-08-09T02:55:20.898Z,96.40
2022-08-09T02:58:00.260Z,96.60
2022-08-09T03:00:57.974Z,97.00
2022-08-09T03:04:12.226Z,97.30
2022-08-09T03:06:15.408Z,97.50
2022-08-09T03:08:45.369Z,97.70
2022-08-09T03:12:04.365Z,97.70
2022-08-09T03:14:05.658Z,98.00
2022-08-09T03:16:35.812Z,98.30
2022-08-09T03:19:05.882Z,98.40
2022-08-09T03:21:43.621Z,98.70
2022-08-09T03:24:31.664Z,99.10
2022-08-09T03:27:09.527Z,99.40
2022-08-09T03:29:43.215Z,99.20
2022-08-09T03:32:26.236Z,99.30
2022-08-09T03:34:54.188Z,99.50
2022-08-09T03:37:54.355Z,99.80
2022-08-09T03:40:09.125Z,99.90
2022-08-09T03:42:43.126Z,99.90
2022-08-09T03:45:10.943Z,99.90
2022-08-09T03:47:40.235Z,99.90
2022-08-09T03:50:11.055Z,99.90
2022-08-09T03:52:40.537Z,99.90
2022-08-09T03:55:10.608Z,99.90
2022-08-09T03:57:53.554Z,99.90
2022-08-09T04:00:29.287Z,99.90
2022-08-09T04:02:57.811Z,99.90
2022-08-09T04:05:27.997Z,99.90
2022-08-09T04:07:57.700Z,99.90
2022-08-09T04:10:28.794Z,99.90
2022-08-09T04:13:04.050Z,99.90
2022-08-09T04:16:17.269Z,99.90
2022-08-09T04:18:21.309Z,99.90
2022-08-09T04:20:48.643Z,99.90
2022-08-09T04:23:17.038Z,99.90
2022-08-09T04:25:51.788Z,99.90
2022-08-09T04:28:30.712Z,99.90
2022-08-09T04:31:09.269Z,99.90
2022-08-09T04:33:47.719Z,99.90
2022-08-09T04:36:25.563Z,99.90
2022-08-09T04:39:00.094Z,99.90
2022-08-09T04:41:33.003Z,99.90
2022-08-09T04:44:05.662Z,99.90
2022-08-09T04:46:38.072Z,99.90
2022-08-09T04:49:40.206Z,99.90
2022-08-09T04:52:11.036Z,99.90
2022-08-09T04:54:38.073Z,99.90
2022-08-09T04:57:04.779Z,99.90
2022-08-09T04:59:36.996Z,99.90
2022-08-09T05:02:03.937Z,99.90
2022-08-09T05:04:33.333Z,99.90
2022-08-09T05:07:00.557Z,99.90
2022-08-09T05:09:41.926Z,99.90
2022-08-09T05:12:09.792Z,99.90
2022-08-09T05:14:41.226Z,99.90
2022-08-09T05:17:15.438Z,99.90
2022-08-09T05:19:57.032Z,99.90
2022-08-09T05:22:33.154Z,99.90
2022-08-09T05:25:15.118Z,99.90
2022-08-09T05:27:46.617Z,99.90
2022-08-09T05:30:16.057Z,99.90
2022-08-09T05:32:45.425Z,99.90
2022-08-09T05:35:17.999Z,99.90
2022-08-09T05:37:47.763Z,99.90
2022-08-09T05:40:17.330Z,99.90
2022-08-09T05:42:45.496Z,99.90
2022-08-09T05:45:14.617Z,99.90
2022-08-09T05:47:51.749Z,99.90
2022-08-09T05:50:32.032Z,99.90
2022-08-09T05:53:02.992Z,99.90
2022-08-09T05:55:31.305Z,99.90
2022-08-09T05:57:58.728Z,99.90
2022-08-09T06:00:28.623Z,99.90
2022-08-09T06:03:01.234Z,99.90
2022-08-09T06:05:57.368Z,99.90
2022-08-09T06:08:19.644Z,99.90
2022-08-09T06:10:51.578Z,99.90
2022-08-09T06:13:20.517Z,99.90
2022-08-09T06:15:51.725Z,99.90
2022-08-09T06:18:25.187Z,99.90
2022-08-09T06:20:57.282Z,99.90
2022-08-09T06:23:55.832Z,99.90
2022-08-09T06:26:20.414Z,99.90
2022-08-09T06:28:49.862Z,99.90
2022-08-09T06:31:30.746Z,99.90
2022-08-09T06:33:58.549Z,99.90
2022-08-09T06:36:27.091Z,99.90
2022-08-09T06:38:54.555Z,99.90
2022-08-09T06:41:24.885Z,99.90
2022-08-09T06:44:18.039Z,99.90
2022-08-09T06:46:45.484Z,99.90
2022-08-09T06:49:12.728Z,99.90
2022-08-09T06:51:43.229Z,99.90
2022-08-09T06:54:14.866Z,99.90
2022-08-09T06:56:45.441Z,99.90
2022-08-09T07:00:57.132Z,99.90
2022-08-09T07:02:04.679Z,99.90
2022-08-09T07:04:32.205Z,99.90
2022-08-09T07:07:00.683Z,99.90
2022-08-09T07:09:54.553Z,99.90
2022-08-09T07:12:18.656Z,99.90
2022-08-09T07:14:50.741Z,99.90
2022-08-09T07:17:17.921Z,99.90
2022-08-09T07:19:44.648Z,99.90
2022-08-09T07:22:14.981Z,99.90
2022-08-09T07:24:44.460Z,99.90
2022-08-09T07:27:33.669Z,99.90
2022-08-09T07:30:02.663Z,99.90
2022-08-09T07:32:32.334Z,99.90
2022-08-09T07:35:11.674Z,99.90
2022-08-09T07:37:45.703Z,99.90
2022-08-09T07:40:18.595Z,99.90
2022-08-09T07:42:57.033Z,99.90
2022-08-09T07:45:37.542Z,99.90
2022-08-09T07:48:05.903Z,99.90
2022-08-09T07:50:36.348Z,99.90
2022-08-09T07:53:04.930Z,99.90
2022-08-09T07:55:41.767Z,99.60
2022-08-09T07:58:26.050Z,99.50
2022-08-09T08:00:58.759Z,99.50
2022-08-09T08:03:32.881Z,99.20
2022-08-09T08:05:59.651Z,99.20
2022-08-09T08:09:00.878Z,99.00
2022-08-09T08:12:09.015Z,99.20
2022-08-09T08:14:00.707Z,98.60
2022-08-09T08:16:29.706Z,98.00
2022-08-09T08:18:58.380Z,98.20
2022-08-09T08:21:25.627Z,97.80
2022-08-09T08:23:55.864Z,97.40
2022-08-09T08:26:26.457Z,97.40
2022-08-09T08:28:53.628Z,97.00
2022-08-09T08:31:20.372Z,96.90
2022-08-09T08:33:52.878Z,97.00
2022-08-09T08:36:29.291Z,97.00
2022-08-09T08:38:58.094Z,97.10
2022-08-09T08:41:41.824Z,97.10
2022-08-09T08:44:14.443Z,96.60
2022-08-09T08:47:02.462Z,96.00
2022-08-09T08:49:38.651Z,96.10
2022-08-09T08:55:06.330Z,95.70
2022-08-09T08:57:35.167Z,95.90
2022-08-09T09:00:12.627Z,95.20
2022-08-09T09:02:52.289Z,94.50
2022-08-09T09:05:33.169Z,94.70
2022-08-09T09:08:29.709Z,94.30
2022-08-09T09:11:01.926Z,94.40
2022-08-09T09:13:55.463Z,94.10
2022-08-09T09:16:35.148Z,93.80
2022-08-09T09:19:37.149Z,93.30
2022-08-09T09:22:23.838Z,92.70
2022-08-09T09:26:04.291Z,92.80
2022-08-09T09:28:03.711Z,92.70
2022-08-09T09:30:40.532Z,92.80
2022-08-09T09:33:15.598Z,92.30
2022-08-09T09:36:02.679Z,91.90
2022-08-09T09:38:43.748Z,91.80
2022-08-09T09:41:27.906Z,91.60
2022-08-09T09:44:10.578Z,91.30
2022-08-09T09:46:43.439Z,90.20
2022-08-09T09:49:49.989Z,88.80
2022-08-09T09:52:33.756Z,88.60
2022-08-09T09:55:23.892Z,88.40
2022-08-09T09:58:17.106Z,84.70
2022-08-09T10:00:54.299Z,82.10
2022-08-09T10:03:57.353Z,82.00
2022-08-09T10:06:42.613Z,81.10
2022-08-09T10:09:23.198Z,81.10
2022-08-09T10:12:15.043Z,80.20
2022-08-09T10:14:50.002Z,80.60
2022-08-09T10:17:51.175Z,79.80
2022-08-09T10:20:27.303Z,79.50
2022-08-09T10:23:12.362Z,78.70
2022-08-09T10:26:04.492Z,78.20
2022-08-09T10:28:32.587Z,77.60
2022-08-09T10:34:10.545Z,77.10
2022-08-09T10:36:35.395Z,77.60
2022-08-09T10:39:03.262Z,77.30
2022-08-09T10:41:40.501Z,77.30
2022-08-09T10:44:10.686Z,75.60
2022-08-09T10:47:03.790Z,75.40
2022-08-09T10:49:51.307Z,76.30
2022-08-09T10:52:29.599Z,75.50
2022-08-09T10:55:18.600Z,74.00
2022-08-09T10:57:45.717Z,73.20
2022-08-09T11:03:03.079Z,72.70
2022-08-09T11:03:51.838Z,74.30
2022-08-09T11:06:21.026Z,72.30
2022-08-09T11:08:51.287Z,71.40
2022-08-09T11:11:21.691Z,70.60
2022-08-09T11:14:27.964Z,69.80
2022-08-09T11:16:56.980Z,69.80
2022-08-09T11:20:11.594Z,69.60
2022-08-09T11:22:47.195Z,69.90
2022-08-09T11:25:46.124Z,68.20
2022-08-09T11:28:54.414Z,68.50
2022-08-09T11:32:01.181Z,68.00
2022-08-09T11:34:45.614Z,67.00
2022-08-09T11:37:31.255Z,65.40
2022-08-09T11:40:11.097Z,64.40
2022-08-09T11:42:48.949Z,64.10
2022-08-09T11:45:37.700Z,64.10
2022-08-09T11:48:19.467Z,63.40
2022-08-09T11:52:54.088Z,63.10
2022-08-09T11:53:58.622Z,62.40
2022-08-09T11:56:42.730Z,61.10
2022-08-09T11:59:30.369Z,60.30
2022-08-09T12:02:01.170Z,59.70
2022-08-09T12:04:45.677Z,58.90
2022-08-09T12:07:14.243Z,57.90
2022-08-09T12:09:50.482Z,58.20
2022-08-09T12:12:20.212Z,59.00
2022-08-09T12:15:07.411Z,58.30
2022-08-09T12:17:44.494Z,58.20
2022-08-09T12:20:16.275Z,58.20
2022-08-09T12:22:44.299Z,58.30
2022-08-09T12:25:16.888Z,56.60
2022-08-09T12:28:58.461Z,56.60
2022-08-09T12:30:36.370Z,56.60
2022-08-09T12:33:06.120Z,56.80
2022-08-09T12:35:40.822Z,56.30
2022-08-09T12:38:29.704Z,55.20
2022-08-09T12:41:04.928Z,55.80
2022-08-09T12:44:05.843Z,55.60
2022-08-09T12:46:23.761Z,55.90
2022-08-09T12:48:52.854Z,54.80
2022-08-09T12:51:30.488Z,54.20
2022-08-09T12:54:08.401Z,54.90
2022-08-09T12:56:51.025Z,55.30
2022-08-09T12:59:23.152Z,55.80
2022-08-09T13:01:58.690Z,55.20
2022-08-09T13:04:37.249Z,55.40
2022-08-09T13:07:16.398Z,54.70
2022-08-09T13:09:55.692Z,54.80
2022-08-09T13:12:28.237Z,55.10
2022-08-09T13:15:07.706Z,55.40
2022-08-09T13:18:02.860Z,55.70
2022-08-09T13:20:37.641Z,56.00
2022-08-09T13:24:06.347Z,55.40
2022-08-09T13:26:06.389Z,55.40
2022-08-09T13:28:39.612Z,55.30
2022-08-09T13:32:12.535Z,54.80
2022-08-09T13:33:56.714Z,55.20
2022-08-09T13:36:42.680Z,55.50
2022-08-09T13:41:50.705Z,54.90
2022-08-09T13:42:04.465Z,54.90
2022-08-09T13:44:32.815Z,54.60
2022-08-09T13:47:26.757Z,54.90
2022-08-09T13:49:57.679Z,53.70
2022-08-09T13:52:28.715Z,53.30
2022-08-09T13:54:59.954Z,53.50
2022-08-09T13:57:36.784Z,53.60
2022-08-09T14:00:12.927Z,53.90
2022-08-09T14:02:42.851Z,53.30
2022-08-09T14:05:57.355Z,53.00
2022-08-09T14:08:17.497Z,52.30
2022-08-09T14:10:49.253Z,52.00
2022-08-09T14:13:27.593Z,52.60
2022-08-09T14:16:10.339Z,52.10
2022-08-09T14:18:45.497Z,52.40
2022-08-09T14:21:17.807Z,52.00
2022-08-09T14:23:55.322Z,52.40
2022-08-09T14:26:31.728Z,51.90
2022-08-09T14:30:15.075Z,52.30
2022-08-09T14:31:55.405Z,52.10
2022-08-09T14:34:27.499Z,52.20
2022-08-09T14:37:07.494Z,51.00
2022-08-09T14:39:45.165Z,50.70
2022-08-09T14:42:38.954Z,50.40
2022-08-09T14:46:57.639Z,51.20
2022-08-09T14:47:57.031Z,51.10
2022-08-09T14:50:26.950Z,50.80
2022-08-09T14:52:53.752Z,50.90
2022-08-09T14:55:21.387Z,50.60
2022-08-09T14:57:49.372Z,50.00
2022-08-09T15:00:17.413Z,50.80
2022-08-09T15:02:47.108Z,51.50
2022-08-09T15:05:16.113Z,50.90
2022-08-09T15:07:45.531Z,50.90
2022-08-09T15:10:24.762Z,50.10
2022-08-09T15:12:53.060Z,50.10
2022-08-09T15:15:20.415Z,50.10
2022-08-09T15:17:52.283Z,49.00
2022-08-09T15:21:56.275Z,49.20
2022-08-09T15:24:02.072Z,48.90
2022-08-09T15:25:55.685Z,49.80
2022-08-09T15:28:27.676Z,50.30
2022-08-09T15:31:08.220Z,50.30
2022-08-09T15:34:31.775Z,50.30
2022-08-09T15:36:29.108Z,50.00
2022-08-09T15:39:00.569Z,50.80
2022-08-09T15:41:31.253Z,49.00
2022-08-09T15:44:02.106Z,48.70
2022-08-09T15:46:34.552Z,48.50
2022-08-09T15:49:20.858Z,48.90
2022-08-09T15:52:04.661Z,49.40
2022-08-09T15:54:49.423Z,49.40
2022-08-09T15:57:35.644Z,49.50
2022-08-09T16:00:14.782Z,49.50
2022-08-09T16:02:48.132Z,49.70
2022-08-09T16:05:22.884Z,49.40
2022-08-09T16:07:50.508Z,49.80
2022-08-09T16:10:56.157Z,49.80
2022-08-09T16:13:05.488Z,50.00
2022-08-09T16:16:10.739Z,49.00
2022-08-09T16:18:32.645Z,49.40
2022-08-09T16:20:59.413Z,49.10
2022-08-09T16:23:27.164Z,49.20
2022-08-09T16:26:02.583Z,49.50
2022-08-09T16:28:29.725Z,49.10
2022-08-09T16:30:58.550Z,49.10
2022-08-09T16:33:26.522Z,49.30
2022-08-09T16:35:58.401Z,48.90
2022-08-09T16:38:27.672Z,48.70
2022-08-09T16:40:56.584Z,49.20
2022-08-09T16:43:24.709Z,49.20
2022-08-09T16:45:54.135Z,49.80
2022-08-09T16:48:39.387Z,49.30
2022-08-09T16:51:14.247Z,49.90
2022-08-09T16:56:34.135Z,49.90
2022-08-09T16:59:06.859Z,49.90
2022-08-09T17:01:38.007Z,49.90
2022-08-09T17:04:06.591Z,49.80
2022-08-09T17:07:10.046Z,50.00
2022-08-09T17:09:46.068Z,49.90
2022-08-09T17:12:07.889Z,49.80
2022-08-09T17:14:35.343Z,49.80
2022-08-09T17:17:03.839Z,50.10
2022-08-09T17:20:32.727Z,49.80
2022-08-09T17:22:49.847Z,49.90
2022-08-09T17:25:17.543Z,49.80
2022-08-09T17:27:49.507Z,49.90
2022-08-09T17:30:26.418Z,49.70
2022-08-09T17:33:00.599Z,49.90
2022-08-09T17:35:28.357Z,49.90
2022-08-09T17:38:07.622Z,49.30
2022-08-09T17:40:41.631Z,49.60
2022-08-09T17:43:33.618Z,49.70
2022-08-09T17:46:03.553Z,50.10
2022-08-09T17:48:34.575Z,50.20
2022-08-09T17:51:10.071Z,50.60
2022-08-09T17:53:51.982Z,50.70
2022-08-09T17:56:35.245Z,50.60
2022-08-09T17:59:11.538Z,51.00
2022-08-09T18:02:06.679Z,51.30
2022-08-09T18:04:29.831Z,51.30
2022-08-09T18:06:57.318Z,51.20
2022-08-09T18:09:35.709Z,51.50
2022-08-09T18:12:14.824Z,51.50
2022-08-09T18:14:53.731Z,51.40
2022-08-09T18:17:27.174Z,51.60
2022-08-09T18:20:55.189Z,51.80
2022-08-09T18:22:56.695Z,51.70
2022-08-09T18:25:50.426Z,51.70
2022-08-09T18:28:21.448Z,51.90
2022-08-09T18:30:58.295Z,51.80
2022-08-09T18:33:25.173Z,51.60
2022-08-09T18:36:00.209Z,51.90
2022-08-09T18:38:27.723Z,52.60
2022-08-09T18:40:55.502Z,52.00
2022-08-09T18:43:22.994Z,52.20
2022-08-09T18:46:46.603Z,52.30
2022-08-09T18:48:37.260Z,52.40
2022-08-09T18:51:04.615Z,52.80
2022-08-09T18:53:41.451Z,52.90
2022-08-09T18:56:20.176Z,53.30
2022-08-09T18:58:55.559Z,53.80
2022-08-09T19:01:23.014Z,54.50
2022-08-09T19:04:01.564Z,54.80
2022-08-09T19:06:33.995Z,56.00
2022-08-09T19:09:02.590Z,56.50
2022-08-09T19:11:35.390Z,57.70
2022-08-09T19:14:06.375Z,57.70
2022-08-09T19:16:36.453Z,58.30
2022-08-09T19:19:25.399Z,58.50
2022-08-09T19:22:04.353Z,58.60
2022-08-09T19:24:39.412Z,58.90
2022-08-09T19:27:21.777Z,59.30
2022-08-09T19:30:22.497Z,59.10
2022-08-09T19:32:36.723Z,59.10
2022-08-09T19:35:05.013Z,59.60
2022-08-09T19:37:41.013Z,59.60
2022-08-09T19:40:19.702Z,60.10
2022-08-09T19:42:47.407Z,60.00
2022-08-09T19:45:16.692Z,60.40
2022-08-09T19:47:44.432Z,60.00
2022-08-09T19:50:50.121Z,60.00
2022-08-09T19:52:59.587Z,57.10
2022-08-09T19:55:39.024Z,56.80
2022-08-09T19:58:17.103Z,57.20
2022-08-09T20:00:55.700Z,57.00
2022-08-09T20:04:16.744Z,56.90
2022-08-09T20:06:23.505Z,57.60
2022-08-09T20:08:56.796Z,58.30
2022-08-09T20:11:26.263Z,58.30
2022-08-09T20:13:54.600Z,59.50
2022-08-09T20:16:35.864Z,59.70
2022-08-09T20:19:47.950Z,60.10
2022-08-09T20:21:56.894Z,61.00
2022-08-09T20:24:29.424Z,61.40
2022-08-09T20:27:11.614Z,62.20
2022-08-09T20:29:46.997Z,62.40
2022-08-09T20:32:30.461Z,62.40
2022-08-09T20:35:02.632Z,62.30
2022-08-09T20:38:08.753Z,62.50
2022-08-09T20:40:26.978Z,62.80
2022-08-09T20:43:24.192Z,63.20
2022-08-09T20:46:01.309Z,63.50
2022-08-09T20:48:42.019Z,64.10
2022-08-09T20:51:19.480Z,64.00
2022-08-09T20:53:50.986Z,64.20
2022-08-09T20:56:26.025Z,64.70
2022-08-09T20:58:59.183Z,65.30
2022-08-09T21:01:34.867Z,65.30
2022-08-09T21:05:52.350Z,65.50
2022-08-09T21:07:10.962Z,65.40
2022-08-09T21:09:46.127Z,66.30
2022-08-09T21:12:32.251Z,66.30
2022-08-09T21:15:13.830Z,66.10
2022-08-09T21:18:25.602Z,67.40
2022-08-09T21:20:38.570Z,67.10
2022-08-09T21:23:09.263Z,67.00
2022-08-09T21:25:55.560Z,67.30
2022-08-09T21:28:35.075Z,67.40
2022-08-09T21:31:17.369Z,67.30
2022-08-09T21:33:50.880Z,67.60
2022-08-09T21:36:28.048Z,67.90
2022-08-09T21:38:59.907Z,68.10
2022-08-09T21:42:03.547Z,68.60
2022-08-09T21:44:33.903Z,69.00
2022-08-09T21:47:03.895Z,69.00
2022-08-09T21:49:40.300Z,69.00
2022-08-09T21:52:16.995Z,68.90
2022-08-09T21:55:03.162Z,69.40
2022-08-09T21:57:38.356Z,68.70
2022-08-09T22:00:25.736Z,69.00
2022-08-09T22:02:58.279Z,69.60
2022-08-09T22:05:37.048Z,70.00
2022-08-09T22:08:13.399Z,70.20
2022-08-09T22:11:00.785Z,70.40
2022-08-09T22:13:34.466Z,70.40
2022-08-09T22:16:04.456Z,71.00
2022-08-09T22:18:34.123Z,70.80
2022-08-09T22:21:01.217Z,71.20
2022-08-09T22:23:35.436Z,71.30
2022-08-09T22:26:23.564Z,71.90
2022-08-09T22:29:07.048Z,72.10
2022-08-09T22:31:44.108Z,72.40
2022-08-09T22:34:17.380Z,72.70
2022-08-09T22:36:48.094Z,72.90
2022-08-09T22:39:47.139Z,73.10
2022-08-09T22:42:03.992Z,73.30
2022-08-09T22:44:47.259Z,73.70
2022-08-09T22:48:10.308Z,74.00
2022-08-09T22:50:01.183Z,74.40
2022-08-09T22:52:27.837Z,74.70
2022-08-09T22:54:56.523Z,74.90
2022-08-09T22:57:23.220Z,74.80
2022-08-09T23:00:02.363Z,75.10
2022-08-09T23:02:29.188Z,75.40
2022-08-09T23:04:57.056Z,75.70
2022-08-09T23:08:29.126Z,76.00
2022-08-09T23:10:32.666Z,76.30
2022-08-09T23:12:59.891Z,76.50
2022-08-09T23:15:28.207Z,76.90
2022-08-09T23:17:55.346Z,77.10
2022-08-09T23:20:22.513Z,77.20
2022-08-09T23:22:49.188Z,77.40
2022-08-09T23:25:15.880Z,77.60
2022-08-09T23:28:14.861Z,77.70
2022-08-09T23:30:29.562Z,77.90
2022-08-09T23:32:57.362Z,78.20
2022-08-09T23:35:24.131Z,78.10
2022-08-09T23:37:50.833Z,78.60
2022-08-09T23:40:17.841Z,78.60
2022-08-09T23:42:44.557Z,78.70
2022-08-09T23:45:36.606Z,78.90
2022-08-09T23:47:58.359Z,78.60
2022-08-09T23:50:25.391Z,79.30
2022-08-09T23:52:52.093Z,79.70
2022-08-09T23:55:19.296Z,79.80
2022-08-09T23:58:08.230Z,80.20
